Arcadia, Nebraska
Current Conditions -  °F | °C
As of 10:53 PM on Wednesday 17 Dec 2014 (Local Time) from KODX Reporting Station
Overcast Overcast  
Wind Chill: 15°   Ceiling: 1200
Heat Index: 23°   Visibility: 10mi
Dew Point: 20°   Wind: 7mph
Humidity: 88%   Direction: 130°SE
Pressure: 30.17"   Gusts: NA
Location:  41.42°N, 99.13°W
Report Text: KODX 180453Z AUTO 13006KT 10SM OVC012 M05/M07 A3017 RMK AO2 SLP250 T10501067
Loading
Personal Weather Stations






























Interactive Weather Map New forecast layout! Learn more

10-Day Weather Forecast

Advertisements
Track Severe Weather on mobile